sensor_id;sensor_type;location;lat;lon;timestamp;pressure;altitude;pressure_sealevel;temperature;humidity
16451;BME280;12243;42.708;23.310;2023-09-07T00:00:33;95489.31;;;22.43;81.47
16451;BME280;12243;42.708;23.310;2023-09-07T00:02:59;95491.31;;;22.41;81.36
16451;BME280;12243;42.708;23.310;2023-09-07T00:05:26;95490.19;;;22.28;81.34
16451;BME280;12243;42.708;23.310;2023-09-07T00:07:53;95482.97;;;22.22;81.54
16451;BME280;12243;42.708;23.310;2023-09-07T00:10:21;95480.94;;;22.24;80.83
16451;BME280;12243;42.708;23.310;2023-09-07T00:12:48;95482.63;;;22.25;80.58
16451;BME280;12243;42.708;23.310;2023-09-07T00:15:15;95482.34;;;22.20;80.29
16451;BME280;12243;42.708;23.310;2023-09-07T00:17:45;95485.09;;;22.12;80.98
16451;BME280;12243;42.708;23.310;2023-09-07T00:20:12;95480.91;;;22.03;80.75
16451;BME280;12243;42.708;23.310;2023-09-07T00:22:40;95485.06;;;21.91;81.66
16451;BME280;12243;42.708;23.310;2023-09-07T00:25:08;95490.09;;;21.85;82.38
16451;BME280;12243;42.708;23.310;2023-09-07T00:27:35;95491.47;;;21.81;82.93
16451;BME280;12243;42.708;23.310;2023-09-07T00:30:03;95486.38;;;21.80;82.97
16451;BME280;12243;42.708;23.310;2023-09-07T00:32:32;95487.19;;;21.80;83.75
16451;BME280;12243;42.708;23.310;2023-09-07T00:35:00;95486.53;;;21.78;83.68
16451;BME280;12243;42.708;23.310;2023-09-07T00:37:27;95479.59;;;21.77;83.98
16451;BME280;12243;42.708;23.310;2023-09-07T00:39:54;95488.03;;;21.66;84.66
16451;BME280;12243;42.708;23.310;2023-09-07T00:42:21;95489.03;;;21.65;85.67
16451;BME280;12243;42.708;23.310;2023-09-07T00:44:48;95486.69;;;21.55;85.90
16451;BME280;12243;42.708;23.310;2023-09-07T00:47:15;95484.75;;;21.49;86.76
16451;BME280;12243;42.708;23.310;2023-09-07T00:49:43;95483.00;;;21.56;86.63
16451;BME280;12243;42.708;23.310;2023-09-07T00:52:11;95478.53;;;21.57;86.69
16451;BME280;12243;42.708;23.310;2023-09-07T00:54:40;95486.59;;;21.49;87.31
16451;BME280;12243;42.708;23.310;2023-09-07T00:57:08;95482.81;;;21.58;87.07
16451;BME280;12243;42.708;23.310;2023-09-07T00:59:36;95485.88;;;21.55;87.11
16451;BME280;12243;42.708;23.310;2023-09-07T01:02:03;95480.16;;;21.58;87.36
16451;BME280;12243;42.708;23.310;2023-09-07T01:04:31;95475.44;;;21.38;88.41
16451;BME280;12243;42.708;23.310;2023-09-07T01:09:32;95485.41;;;21.36;88.85
16451;BME280;12243;42.708;23.310;2023-09-07T01:12:02;95480.28;;;21.35;89.29
16451;BME280;12243;42.708;23.310;2023-09-07T01:14:30;95483.44;;;21.30;90.01
16451;BME280;12243;42.708;23.310;2023-09-07T01:16:57;95488.28;;;21.27;89.99
16451;BME280;12243;42.708;23.310;2023-09-07T01:19:24;95487.75;;;21.31;90.19
16451;BME280;12243;42.708;23.310;2023-09-07T01:21:53;95484.78;;;21.34;90.21
16451;BME280;12243;42.708;23.310;2023-09-07T01:24:20;95487.81;;;21.23;90.70
16451;BME280;12243;42.708;23.310;2023-09-07T01:26:49;95480.59;;;21.02;91.59
16451;BME280;12243;42.708;23.310;2023-09-07T01:29:16;95478.50;;;20.98;92.11
16451;BME280;12243;42.708;23.310;2023-09-07T01:31:43;95480.69;;;20.94;92.66
16451;BME280;12243;42.708;23.310;2023-09-07T01:34:10;95479.63;;;21.03;92.12
16451;BME280;12243;42.708;23.310;2023-09-07T01:36:37;95476.72;;;21.13;91.47
16451;BME280;12243;42.708;23.310;2023-09-07T01:39:05;95480.69;;;21.09;91.92
16451;BME280;12243;42.708;23.310;2023-09-07T01:41:33;95472.50;;;21.04;92.13
16451;BME280;12243;42.708;23.310;2023-09-07T01:44:00;95476.03;;;20.96;92.62
16451;BME280;12243;42.708;23.310;2023-09-07T01:46:27;95487.09;;;21.00;92.78
16451;BME280;12243;42.708;23.310;2023-09-07T01:48:53;95485.81;;;20.96;92.58
16451;BME280;12243;42.708;23.310;2023-09-07T01:51:20;95484.81;;;20.97;92.34
16451;BME280;12243;42.708;23.310;2023-09-07T01:53:47;95479.06;;;21.08;92.08
16451;BME280;12243;42.708;23.310;2023-09-07T01:56:17;95477.59;;;20.90;92.94
16451;BME280;12243;42.708;23.310;2023-09-07T01:58:43;95481.44;;;21.03;92.50
16451;BME280;12243;42.708;23.310;2023-09-07T02:01:21;95476.16;;;21.17;92.15
16451;BME280;12243;42.708;23.310;2023-09-07T02:03:48;95482.06;;;21.20;91.81
16451;BME280;12243;42.708;23.310;2023-09-07T02:06:15;95476.88;;;21.26;91.18
16451;BME280;12243;42.708;23.310;2023-09-07T02:08:42;95481.81;;;21.29;91.13
16451;BME280;12243;42.708;23.310;2023-09-07T02:11:09;95481.25;;;21.19;91.52
16451;BME280;12243;42.708;23.310;2023-09-07T02:13:41;95482.06;;;21.05;92.38
16451;BME280;12243;42.708;23.310;2023-09-07T02:16:08;95477.78;;;21.04;93.10
16451;BME280;12243;42.708;23.310;2023-09-07T02:18:35;95480.69;;;21.09;92.77
16451;BME280;12243;42.708;23.310;2023-09-07T02:21:03;95488.38;;;21.04;93.01
16451;BME280;12243;42.708;23.310;2023-09-07T02:23:31;95488.19;;;21.05;93.03
16451;BME280;12243;42.708;23.310;2023-09-07T02:25:58;95487.00;;;21.08;93.10
16451;BME280;12243;42.708;23.310;2023-09-07T02:28:25;95486.00;;;21.09;92.74
16451;BME280;12243;42.708;23.310;2023-09-07T02:30:54;95485.44;;;20.99;93.22
16451;BME280;12243;42.708;23.310;2023-09-07T02:33:20;95485.38;;;20.92;94.13
16451;BME280;12243;42.708;23.310;2023-09-07T02:35:48;95486.19;;;20.92;94.54
16451;BME280;12243;42.708;23.310;2023-09-07T02:38:15;95490.16;;;20.88;95.42
16451;BME280;12243;42.708;23.310;2023-09-07T02:40:43;95493.31;;;21.07;94.01
16451;BME280;12243;42.708;23.310;2023-09-07T02:43:10;95485.00;;;21.10;93.57
16451;BME280;12243;42.708;23.310;2023-09-07T02:45:37;95486.34;;;21.06;93.75
16451;BME280;12243;42.708;23.310;2023-09-07T02:48:07;95488.75;;;21.15;92.89
16451;BME280;12243;42.708;23.310;2023-09-07T02:50:36;95491.59;;;21.14;93.08
16451;BME280;12243;42.708;23.310;2023-09-07T02:53:03;95482.88;;;21.05;93.68
16451;BME280;12243;42.708;23.310;2023-09-07T02:55:31;95481.25;;;21.04;93.35
16451;BME280;12243;42.708;23.310;2023-09-07T02:57:58;95493.13;;;20.93;94.37
16451;BME280;12243;42.708;23.310;2023-09-07T03:00:26;95483.81;;;20.98;94.17
16451;BME280;12243;42.708;23.310;2023-09-07T03:02:53;95487.09;;;21.00;93.86
16451;BME280;12243;42.708;23.310;2023-09-07T03:05:22;95490.16;;;20.88;94.55
16451;BME280;12243;42.708;23.310;2023-09-07T03:07:49;95489.66;;;20.93;94.48
16451;BME280;12243;42.708;23.310;2023-09-07T03:10:18;95492.19;;;20.86;94.36
16451;BME280;12243;42.708;23.310;2023-09-07T03:12:45;95492.00;;;20.88;94.61
16451;BME280;12243;42.708;23.310;2023-09-07T03:15:13;95502.13;;;20.84;94.91
16451;BME280;12243;42.708;23.310;2023-09-07T03:17:41;95488.53;;;20.87;95.17
16451;BME280;12243;42.708;23.310;2023-09-07T03:20:09;95488.06;;;20.84;95.23
16451;BME280;12243;42.708;23.310;2023-09-07T03:22:43;95493.44;;;20.76;96.13
16451;BME280;12243;42.708;23.310;2023-09-07T03:25:10;95499.84;;;20.81;95.96
16451;BME280;12243;42.708;23.310;2023-09-07T03:27:38;95499.25;;;20.71;96.73
16451;BME280;12243;42.708;23.310;2023-09-07T03:30:07;95499.88;;;20.58;98.04
16451;BME280;12243;42.708;23.310;2023-09-07T03:32:34;95498.81;;;20.44;99.12
16451;BME280;12243;42.708;23.310;2023-09-07T03:35:04;95502.47;;;20.43;99.31
16451;BME280;12243;42.708;23.310;2023-09-07T03:37:32;95502.56;;;20.27;100.00
16451;BME280;12243;42.708;23.310;2023-09-07T03:40:00;95507.38;;;20.23;100.00
16451;BME280;12243;42.708;23.310;2023-09-07T03:42:29;95500.97;;;20.18;100.00
16451;BME280;12243;42.708;23.310;2023-09-07T03:44:56;95504.97;;;20.14;100.00
16451;BME280;12243;42.708;23.310;2023-09-07T03:47:23;95505.75;;;20.22;100.00
16451;BME280;12243;42.708;23.310;2023-09-07T03:49:54;95504.19;;;20.28;100.00
16451;BME280;12243;42.708;23.310;2023-09-07T03:52:22;95506.69;;;20.30;100.00
16451;BME280;12243;42.708;23.310;2023-09-07T03:54:50;95513.03;;;20.43;100.00
16451;BME280;12243;42.708;23.310;2023-09-07T03:57:19;95512.66;;;20.46;100.00
16451;BME280;12243;42.708;23.310;2023-09-07T03:59:47;95521.53;;;20.62;99.57
16451;BME280;12243;42.708;23.310;2023-09-07T04:02:14;95524.34;;;20.60;100.00
16451;BME280;12243;42.708;23.310;2023-09-07T04:04:42;95517.06;;;20.62;100.00
16451;BME280;12243;42.708;23.310;2023-09-07T04:07:09;95522.81;;;20.66;100.00
16451;BME280;12243;42.708;23.310;2023-09-07T04:09:36;95527.41;;;20.72;100.00
16451;BME280;12243;42.708;23.310;2023-09-07T04:12:03;95524.31;;;20.83;99.54
16451;BME280;12243;42.708;23.310;2023-09-07T04:14:34;95526.41;;;20.88;99.29
16451;BME280;12243;42.708;23.310;2023-09-07T04:17:01;95525.47;;;21.04;98.29
16451;BME280;12243;42.708;23.310;2023-09-07T04:19:27;95529.38;;;20.93;98.92
16451;BME280;12243;42.708;23.310;2023-09-07T04:21:54;95532.81;;;20.79;99.36
16451;BME280;12243;42.708;23.310;2023-09-07T04:24:21;95524.91;;;20.70;100.00
16451;BME280;12243;42.708;23.310;2023-09-07T04:26:52;95528.88;;;20.75;100.00
16451;BME280;12243;42.708;23.310;2023-09-07T04:29:20;95518.81;;;20.70;100.00
16451;BME280;12243;42.708;23.310;2023-09-07T04:31:49;95525.72;;;20.71;100.00
16451;BME280;12243;42.708;23.310;2023-09-07T04:34:16;95525.81;;;20.63;100.00
16451;BME280;12243;42.708;23.310;2023-09-07T04:36:43;95533.03;;;20.69;100.00
16451;BME280;12243;42.708;23.310;2023-09-07T04:39:10;95530.75;;;20.66;100.00
16451;BME280;12243;42.708;23.310;2023-09-07T04:41:39;95537.56;;;20.60;100.00
16451;BME280;12243;42.708;23.310;2023-09-07T04:44:06;95528.66;;;20.61;100.00
16451;BME280;12243;42.708;23.310;2023-09-07T04:46:33;95543.50;;;20.62;100.00
16451;BME280;12243;42.708;23.310;2023-09-07T04:49:02;95539.97;;;20.47;100.00
16451;BME280;12243;42.708;23.310;2023-09-07T04:51:29;95542.78;;;20.45;100.00
16451;BME280;12243;42.708;23.310;2023-09-07T04:53:56;95548.22;;;20.52;100.00
16451;BME280;12243;42.708;23.310;2023-09-07T04:56:23;95549.34;;;20.58;100.00
16451;BME280;12243;42.708;23.310;2023-09-07T04:58:51;95544.19;;;20.64;100.00
16451;BME280;12243;42.708;23.310;2023-09-07T05:01:18;95547.72;;;20.49;100.00
16451;BME280;12243;42.708;23.310;2023-09-07T05:03:46;95538.78;;;20.50;100.00
16451;BME280;12243;42.708;23.310;2023-09-07T05:06:14;95546.41;;;20.53;100.00
16451;BME280;12243;42.708;23.310;2023-09-07T05:08:41;95544.69;;;20.60;100.00
16451;BME280;12243;42.708;23.310;2023-09-07T05:11:08;95545.50;;;20.60;100.00
16451;BME280;12243;42.708;23.310;2023-09-07T05:13:34;95546.59;;;20.51;100.00
16451;BME280;12243;42.708;23.310;2023-09-07T05:16:02;95549.34;;;20.50;100.00
16451;BME280;12243;42.708;23.310;2023-09-07T05:18:31;95549.34;;;20.50;100.00
16451;BME280;12243;42.708;23.310;2023-09-07T05:20:58;95549.53;;;20.25;100.00
16451;BME280;12243;42.708;23.310;2023-09-07T05:23:26;95553.91;;;20.10;100.00
16451;BME280;12243;42.708;23.310;2023-09-07T05:25:54;95557.31;;;19.95;100.00
16451;BME280;12243;42.708;23.310;2023-09-07T05:28:23;95557.84;;;19.83;100.00
16451;BME280;12243;42.708;23.310;2023-09-07T05:30:53;95565.63;;;19.76;100.00
16451;BME280;12243;42.708;23.310;2023-09-07T05:33:22;95560.38;;;19.68;100.00
16451;BME280;12243;42.708;23.310;2023-09-07T05:35:49;95561.38;;;19.59;100.00
16451;BME280;12243;42.708;23.310;2023-09-07T05:38:16;95558.44;;;19.54;100.00
16451;BME280;12243;42.708;23.310;2023-09-07T05:40:45;95550.84;;;19.50;100.00
16451;BME280;12243;42.708;23.310;2023-09-07T05:43:16;95558.13;;;19.40;100.00
16451;BME280;12243;42.708;23.310;2023-09-07T05:45:43;95551.19;;;19.39;100.00
16451;BME280;12243;42.708;23.310;2023-09-07T05:48:11;95554.16;;;19.44;100.00
16451;BME280;12243;42.708;23.310;2023-09-07T05:50:38;95554.78;;;19.55;100.00
16451;BME280;12243;42.708;23.310;2023-09-07T05:53:05;95563.84;;;19.60;100.00
16451;BME280;12243;42.708;23.310;2023-09-07T05:55:33;95560.00;;;19.79;100.00
16451;BME280;12243;42.708;23.310;2023-09-07T05:58:04;95559.19;;;19.79;100.00
16451;BME280;12243;42.708;23.310;2023-09-07T06:00:32;95562.44;;;19.89;100.00
16451;BME280;12243;42.708;23.310;2023-09-07T06:03:00;95559.16;;;20.18;100.00
16451;BME280;12243;42.708;23.310;2023-09-07T06:05:27;95562.06;;;20.31;100.00
16451;BME280;12243;42.708;23.310;2023-09-07T06:07:55;95560.44;;;20.53;100.00
16451;BME280;12243;42.708;23.310;2023-09-07T06:10:22;95558.16;;;20.73;100.00
16451;BME280;12243;42.708;23.310;2023-09-07T06:12:49;95557.00;;;21.13;100.00
16451;BME280;12243;42.708;23.310;2023-09-07T06:15:18;95563.44;;;21.63;98.10
16451;BME280;12243;42.708;23.310;2023-09-07T06:17:45;95563.41;;;22.08;94.73
16451;BME280;12243;42.708;23.310;2023-09-07T06:20:12;95564.00;;;22.40;91.21
16451;BME280;12243;42.708;23.310;2023-09-07T06:22:40;95567.19;;;22.71;90.54
16451;BME280;12243;42.708;23.310;2023-09-07T06:25:07;95570.94;;;22.98;86.97
16451;BME280;12243;42.708;23.310;2023-09-07T06:27:34;95570.25;;;23.18;85.70
16451;BME280;12243;42.708;23.310;2023-09-07T06:30:01;95578.28;;;23.24;82.91
16451;BME280;12243;42.708;23.310;2023-09-07T06:32:31;95575.41;;;23.19;81.05
16451;BME280;12243;42.708;23.310;2023-09-07T06:34:58;95572.38;;;23.01;80.39
16451;BME280;12243;42.708;23.310;2023-09-07T06:37:25;95572.13;;;22.96;81.23
16451;BME280;12243;42.708;23.310;2023-09-07T06:39:52;95573.38;;;23.00;82.11
16451;BME280;12243;42.708;23.310;2023-09-07T06:42:20;95574.69;;;23.11;80.88
16451;BME280;12243;42.708;23.310;2023-09-07T06:44:55;95568.69;;;23.23;79.99
16451;BME280;12243;42.708;23.310;2023-09-07T06:47:22;95580.47;;;23.42;78.96
16451;BME280;12243;42.708;23.310;2023-09-07T06:49:50;95572.41;;;23.57;77.12
16451;BME280;12243;42.708;23.310;2023-09-07T06:52:17;95579.25;;;23.45;77.25
16451;BME280;12243;42.708;23.310;2023-09-07T06:54:44;95578.41;;;23.38;78.04
16451;BME280;12243;42.708;23.310;2023-09-07T06:57:11;95581.63;;;23.33;78.38
16451;BME280;12243;42.708;23.310;2023-09-07T06:59:38;95568.53;;;23.32;79.28
16451;BME280;12243;42.708;23.310;2023-09-07T07:02:05;95570.13;;;23.26;77.62
16451;BME280;12243;42.708;23.310;2023-09-07T07:04:32;95573.44;;;23.06;77.27
16451;BME280;12243;42.708;23.310;2023-09-07T07:07:02;95565.78;;;22.97;78.25
16451;BME280;12243;42.708;23.310;2023-09-07T07:09:31;95572.38;;;23.01;78.18
16451;BME280;12243;42.708;23.310;2023-09-07T07:11:59;95565.25;;;23.29;77.23
16451;BME280;12243;42.708;23.310;2023-09-07T07:14:27;95560.22;;;23.69;74.39
16451;BME280;12243;42.708;23.310;2023-09-07T07:16:54;95561.16;;;23.96;72.56
16451;BME280;12243;42.708;23.310;2023-09-07T07:19:22;95566.22;;;24.33;72.29
16451;BME280;12243;42.708;23.310;2023-09-07T07:21:50;95569.00;;;24.59;71.63
16451;BME280;12243;42.708;23.310;2023-09-07T07:24:19;95568.81;;;24.87;69.87
16451;BME280;12243;42.708;23.310;2023-09-07T07:26:46;95568.84;;;24.94;68.58
16451;BME280;12243;42.708;23.310;2023-09-07T07:29:13;95577.22;;;24.91;69.29
16451;BME280;12243;42.708;23.310;2023-09-07T07:31:40;95574.19;;;25.14;68.68
16451;BME280;12243;42.708;23.310;2023-09-07T07:34:07;95575.16;;;24.93;67.01
16451;BME280;12243;42.708;23.310;2023-09-07T07:36:34;95576.19;;;24.92;66.13
16451;BME280;12243;42.708;23.310;2023-09-07T07:39:02;95572.94;;;24.97;65.77
16451;BME280;12243;42.708;23.310;2023-09-07T07:41:31;95590.13;;;24.81;66.54
16451;BME280;12243;42.708;23.310;2023-09-07T07:43:58;95584.75;;;24.54;67.08
16451;BME280;12243;42.708;23.310;2023-09-07T07:46:24;95581.88;;;24.49;66.95
16451;BME280;12243;42.708;23.310;2023-09-07T07:48:52;95577.69;;;24.33;65.79
16451;BME280;12243;42.708;23.310;2023-09-07T07:51:18;95584.22;;;24.24;66.40
16451;BME280;12243;42.708;23.310;2023-09-07T07:53:48;95590.31;;;24.11;66.82
16451;BME280;12243;42.708;23.310;2023-09-07T07:56:17;95593.34;;;24.08;67.08
16451;BME280;12243;42.708;23.310;2023-09-07T07:58:47;95591.34;;;24.10;66.85
16451;BME280;12243;42.708;23.310;2023-09-07T08:01:16;95592.31;;;24.03;67.29
16451;BME280;12243;42.708;23.310;2023-09-07T08:03:44;95593.22;;;24.16;67.30
16451;BME280;12243;42.708;23.310;2023-09-07T08:06:11;95592.75;;;24.06;66.82
16451;BME280;12243;42.708;23.310;2023-09-07T08:08:38;95589.28;;;24.12;67.45
16451;BME280;12243;42.708;23.310;2023-09-07T08:11:06;95588.31;;;24.27;66.90
16451;BME280;12243;42.708;23.310;2023-09-07T08:13:37;95581.47;;;24.52;64.62
16451;BME280;12243;42.708;23.310;2023-09-07T08:16:06;95584.75;;;24.54;64.10
16451;BME280;12243;42.708;23.310;2023-09-07T08:18:34;95576.59;;;24.62;63.53
16451;BME280;12243;42.708;23.310;2023-09-07T08:21:01;95583.16;;;24.93;63.49
16451;BME280;12243;42.708;23.310;2023-09-07T08:23:28;95569.69;;;25.14;60.95
16451;BME280;12243;42.708;23.310;2023-09-07T08:25:55;95578.72;;;25.40;60.39
16451;BME280;12243;42.708;23.310;2023-09-07T08:28:24;95578.28;;;25.56;59.42
16451;BME280;12243;42.708;23.310;2023-09-07T08:30:52;95562.84;;;25.85;58.58
16451;BME280;12243;42.708;23.310;2023-09-07T08:33:21;95572.03;;;26.02;58.37
16451;BME280;12243;42.708;23.310;2023-09-07T08:35:56;95569.50;;;26.21;56.19
16451;BME280;12243;42.708;23.310;2023-09-07T08:38:25;95565.56;;;26.30;54.82
16451;BME280;12243;42.708;23.310;2023-09-07T08:40:54;95581.09;;;26.01;55.06
16451;BME280;12243;42.708;23.310;2023-09-07T08:43:21;95582.00;;;25.42;56.30
16451;BME280;12243;42.708;23.310;2023-09-07T08:45:51;95577.44;;;25.03;58.00
16451;BME280;12243;42.708;23.310;2023-09-07T08:48:27;95568.41;;;25.10;57.35
16451;BME280;12243;42.708;23.310;2023-09-07T08:50:56;95567.63;;;25.23;57.57
16451;BME280;12243;42.708;23.310;2023-09-07T08:53:23;95570.28;;;25.56;56.28
16451;BME280;12243;42.708;23.310;2023-09-07T08:55:51;95568.84;;;25.60;56.43
16451;BME280;12243;42.708;23.310;2023-09-07T08:58:18;95558.16;;;25.60;56.59
16451;BME280;12243;42.708;23.310;2023-09-07T09:00:45;95558.13;;;25.74;56.46
16451;BME280;12243;42.708;23.310;2023-09-07T09:03:12;95555.88;;;25.77;55.79
16451;BME280;12243;42.708;23.310;2023-09-07T09:05:40;95556.84;;;25.96;55.05
16451;BME280;12243;42.708;23.310;2023-09-07T09:08:08;95557.94;;;25.82;54.81
16451;BME280;12243;42.708;23.310;2023-09-07T09:10:38;95560.13;;;26.05;54.47
16451;BME280;12243;42.708;23.310;2023-09-07T09:13:05;95559.16;;;26.37;53.21
16451;BME280;12243;42.708;23.310;2023-09-07T09:15:33;95563.66;;;26.44;53.79
16451;BME280;12243;42.708;23.310;2023-09-07T09:18:09;95563.63;;;26.57;52.46
16451;BME280;12243;42.708;23.310;2023-09-07T09:20:38;95557.69;;;26.80;52.33
16451;BME280;12243;42.708;23.310;2023-09-07T09:23:07;95556.91;;;27.04;51.05
16451;BME280;12243;42.708;23.310;2023-09-07T09:25:34;95556.50;;;26.76;49.72
16451;BME280;12243;42.708;23.310;2023-09-07T09:28:00;95548.53;;;26.94;50.30
16451;BME280;12243;42.708;23.310;2023-09-07T09:30:27;95545.53;;;27.16;49.28
16451;BME280;12243;42.708;23.310;2023-09-07T09:32:55;95545.84;;;27.26;48.72
16451;BME280;12243;42.708;23.310;2023-09-07T09:35:22;95542.16;;;27.27;48.90
16451;BME280;12243;42.708;23.310;2023-09-07T09:37:50;95542.00;;;26.90;49.19
16451;BME280;12243;42.708;23.310;2023-09-07T09:40:18;95545.91;;;26.56;49.87
16451;BME280;12243;42.708;23.310;2023-09-07T09:42:45;95537.28;;;26.60;49.79
16451;BME280;12243;42.708;23.310;2023-09-07T09:45:12;95542.81;;;26.91;49.49
16451;BME280;12243;42.708;23.310;2023-09-07T09:47:41;95528.78;;;26.95;48.98
16451;BME280;12243;42.708;23.310;2023-09-07T09:50:10;95536.16;;;26.75;49.15
16451;BME280;12243;42.708;23.310;2023-09-07T09:52:38;95529.94;;;26.49;49.88
16451;BME280;12243;42.708;23.310;2023-09-07T09:55:06;95532.84;;;26.41;50.35
16451;BME280;12243;42.708;23.310;2023-09-07T09:57:35;95528.97;;;26.37;50.66
16451;BME280;12243;42.708;23.310;2023-09-07T10:00:03;95535.75;;;26.33;51.39
16451;BME280;12243;42.708;23.310;2023-09-07T10:02:48;95532.47;;;26.31;50.72
16451;BME280;12243;42.708;23.310;2023-09-07T10:05:18;95526.41;;;26.10;51.28
16451;BME280;12243;42.708;23.310;2023-09-07T10:07:48;95520.75;;;25.87;51.96
16451;BME280;12243;42.708;23.310;2023-09-07T10:10:18;95518.94;;;25.74;52.41
16451;BME280;12243;42.708;23.310;2023-09-07T10:12:51;95522.47;;;25.55;52.32
16451;BME280;12243;42.708;23.310;2023-09-07T10:15:23;95518.16;;;25.54;53.66
16451;BME280;12243;42.708;23.310;2023-09-07T10:17:50;95514.44;;;25.55;52.76
16451;BME280;12243;42.708;23.310;2023-09-07T10:20:22;95511.53;;;25.83;52.92
16451;BME280;12243;42.708;23.310;2023-09-07T10:22:49;95516.09;;;26.21;52.22
16451;BME280;12243;42.708;23.310;2023-09-07T10:25:20;95519.25;;;26.43;50.49
16451;BME280;12243;42.708;23.310;2023-09-07T10:27:49;95516.19;;;26.39;50.42
16451;BME280;12243;42.708;23.310;2023-09-07T10:30:16;95513.75;;;26.37;50.33
16451;BME280;12243;42.708;23.310;2023-09-07T10:32:49;95504.47;;;26.47;50.05
16451;BME280;12243;42.708;23.310;2023-09-07T10:35:18;95503.88;;;26.38;49.59
16451;BME280;12243;42.708;23.310;2023-09-07T10:37:47;95504.56;;;26.27;49.85
16451;BME280;12243;42.708;23.310;2023-09-07T10:40:19;95510.38;;;26.10;51.14
16451;BME280;12243;42.708;23.310;2023-09-07T10:42:46;95509.59;;;26.03;51.16
16451;BME280;12243;42.708;23.310;2023-09-07T10:45:16;95507.91;;;26.16;51.07
16451;BME280;12243;42.708;23.310;2023-09-07T10:47:43;95507.16;;;26.40;50.22
16451;BME280;12243;42.708;23.310;2023-09-07T10:50:12;95516.81;;;26.41;51.31
16451;BME280;12243;42.708;23.310;2023-09-07T10:52:39;95510.81;;;26.46;51.57
16451;BME280;12243;42.708;23.310;2023-09-07T10:55:08;95501.81;;;26.47;51.33
16451;BME280;12243;42.708;23.310;2023-09-07T10:57:45;95512.94;;;26.37;51.12
16451;BME280;12243;42.708;23.310;2023-09-07T11:00:15;95497.59;;;26.26;51.46
16451;BME280;12243;42.708;23.310;2023-09-07T11:02:43;95496.00;;;26.11;51.34
16451;BME280;12243;42.708;23.310;2023-09-07T11:05:10;95499.22;;;26.27;51.25
16451;BME280;12243;42.708;23.310;2023-09-07T11:07:37;95499.09;;;26.15;50.73
16451;BME280;12243;42.708;23.310;2023-09-07T11:10:09;95498.91;;;26.03;52.01
16451;BME280;12243;42.708;23.310;2023-09-07T11:12:37;95500.50;;;26.18;51.95
16451;BME280;12243;42.708;23.310;2023-09-07T11:15:05;95498.72;;;26.43;51.06
16451;BME280;12243;42.708;23.310;2023-09-07T11:17:38;95492.84;;;26.28;50.76
16451;BME280;12243;42.708;23.310;2023-09-07T11:20:07;95495.94;;;26.25;52.04
16451;BME280;12243;42.708;23.310;2023-09-07T11:22:36;95496.44;;;26.08;52.11
16451;BME280;12243;42.708;23.310;2023-09-07T11:25:04;95496.94;;;25.92;53.31
16451;BME280;12243;42.708;23.310;2023-09-07T11:27:31;95495.56;;;25.63;53.83
16451;BME280;12243;42.708;23.310;2023-09-07T11:29:58;95495.38;;;25.51;54.58
16451;BME280;12243;42.708;23.310;2023-09-07T11:32:33;95499.91;;;25.51;55.02
16451;BME280;12243;42.708;23.310;2023-09-07T11:35:02;95501.50;;;25.58;55.01
16451;BME280;12243;42.708;23.310;2023-09-07T11:37:32;95506.47;;;25.48;55.14
16451;BME280;12243;42.708;23.310;2023-09-07T11:40:00;95488.41;;;25.57;54.78
16451;BME280;12243;42.708;23.310;2023-09-07T11:42:29;95491.00;;;25.77;53.93
16451;BME280;12243;42.708;23.310;2023-09-07T11:44:55;95493.88;;;25.75;53.51
16451;BME280;12243;42.708;23.310;2023-09-07T11:47:22;95490.41;;;25.81;53.46
16451;BME280;12243;42.708;23.310;2023-09-07T11:49:49;95484.25;;;25.67;53.41
16451;BME280;12243;42.708;23.310;2023-09-07T11:52:20;95486.09;;;25.74;53.90
16451;BME280;12243;42.708;23.310;2023-09-07T11:54:47;95480.13;;;25.85;53.65
16451;BME280;12243;42.708;23.310;2023-09-07T11:57:14;95469.03;;;25.88;53.13
16451;BME280;12243;42.708;23.310;2023-09-07T11:59:41;95476.84;;;25.83;53.31
16451;BME280;12243;42.708;23.310;2023-09-07T12:02:08;95474.69;;;26.05;53.03
16451;BME280;12243;42.708;23.310;2023-09-07T12:04:40;95472.16;;;26.17;53.01
16451;BME280;12243;42.708;23.310;2023-09-07T12:07:07;95467.31;;;26.00;52.19
16451;BME280;12243;42.708;23.310;2023-09-07T12:09:36;95467.00;;;25.77;52.52
16451;BME280;12243;42.708;23.310;2023-09-07T12:12:03;95483.00;;;25.77;52.49
16451;BME280;12243;42.708;23.310;2023-09-07T12:14:31;95471.59;;;25.56;52.94
16451;BME280;12243;42.708;23.310;2023-09-07T12:16:58;95470.19;;;25.40;53.22
16451;BME280;12243;42.708;23.310;2023-09-07T12:19:25;95468.72;;;25.51;52.98
16451;BME280;12243;42.708;23.310;2023-09-07T12:21:52;95473.59;;;25.67;53.01
16451;BME280;12243;42.708;23.310;2023-09-07T12:24:19;95469.88;;;25.82;52.47
16451;BME280;12243;42.708;23.310;2023-09-07T12:26:48;95471.06;;;25.86;51.81
16451;BME280;12243;42.708;23.310;2023-09-07T12:29:15;95473.94;;;25.91;52.24
16451;BME280;12243;42.708;23.310;2023-09-07T12:31:42;95467.38;;;25.87;52.33
16451;BME280;12243;42.708;23.310;2023-09-07T12:34:09;95459.13;;;25.95;52.29
16451;BME280;12243;42.708;23.310;2023-09-07T12:36:36;95464.25;;;25.97;52.52
16451;BME280;12243;42.708;23.310;2023-09-07T12:39:02;95457.78;;;26.18;52.12
16451;BME280;12243;42.708;23.310;2023-09-07T12:41:31;95454.88;;;26.26;51.13
16451;BME280;12243;42.708;23.310;2023-09-07T12:43:59;95468.03;;;26.21;50.49
16451;BME280;12243;42.708;23.310;2023-09-07T12:46:26;95456.56;;;26.13;50.51
16451;BME280;12243;42.708;23.310;2023-09-07T12:48:53;95469.28;;;26.11;51.38
16451;BME280;12243;42.708;23.310;2023-09-07T12:51:20;95465.44;;;26.01;51.20
16451;BME280;12243;42.708;23.310;2023-09-07T12:53:47;95466.09;;;25.96;51.61